sensor_id;sensor_type;location;lat;lon;timestamp;P1;durP1;ratioP1;P2;durP2;ratioP2
27833;SDS011;15200;50.570;7.244;2023-09-19T00:00:20;2.00;;;0.90;;
27833;SDS011;15200;50.570;7.244;2023-09-19T00:02:54;2.02;;;0.80;;
27833;SDS011;15200;50.570;7.244;2023-09-19T00:05:23;1.92;;;1.30;;
27833;SDS011;15200;50.570;7.244;2023-09-19T00:07:51;1.40;;;1.17;;
27833;SDS011;15200;50.570;7.244;2023-09-19T00:10:21;2.65;;;1.00;;
27833;SDS011;15200;50.570;7.244;2023-09-19T00:12:51;3.12;;;1.10;;
27833;SDS011;15200;50.570;7.244;2023-09-19T00:15:20;3.47;;;1.10;;
27833;SDS011;15200;50.570;7.244;2023-09-19T00:17:47;4.37;;;1.30;;
27833;SDS011;15200;50.570;7.244;2023-09-19T00:20:14;2.90;;;1.10;;
27833;SDS011;15200;50.570;7.244;2023-09-19T00:22:43;5.80;;;1.40;;
27833;SDS011;15200;50.570;7.244;2023-09-19T00:25:11;2.20;;;0.80;;
27833;SDS011;15200;50.570;7.244;2023-09-19T00:27:38;2.65;;;1.05;;
27833;SDS011;15200;50.570;7.244;2023-09-19T00:30:09;2.37;;;0.82;;
27833;SDS011;15200;50.570;7.244;2023-09-19T00:32:41;2.98;;;1.22;;
27833;SDS011;15200;50.570;7.244;2023-09-19T00:35:09;3.08;;;1.20;;
27833;SDS011;15200;50.570;7.244;2023-09-19T00:37:37;2.15;;;0.90;;
27833;SDS011;15200;50.570;7.244;2023-09-19T00:40:09;5.08;;;1.42;;
27833;SDS011;15200;50.570;7.244;2023-09-19T00:42:41;3.98;;;1.30;;
27833;SDS011;15200;50.570;7.244;2023-09-19T00:45:09;3.05;;;1.47;;
27833;SDS011;15200;50.570;7.244;2023-09-19T00:47:39;2.33;;;1.12;;
27833;SDS011;15200;50.570;7.244;2023-09-19T00:50:07;3.90;;;1.40;;
27833;SDS011;15200;50.570;7.244;2023-09-19T00:52:35;4.90;;;1.35;;
27833;SDS011;15200;50.570;7.244;2023-09-19T00:55:05;5.00;;;1.50;;
27833;SDS011;15200;50.570;7.244;2023-09-19T00:57:33;2.25;;;0.90;;
27833;SDS011;15200;50.570;7.244;2023-09-19T01:00:01;3.35;;;1.25;;
27833;SDS011;15200;50.570;7.244;2023-09-19T01:02:33;4.97;;;1.55;;
27833;SDS011;15200;50.570;7.244;2023-09-19T01:05:00;2.40;;;1.22;;
27833;SDS011;15200;50.570;7.244;2023-09-19T01:07:30;4.15;;;1.40;;
27833;SDS011;15200;50.570;7.244;2023-09-19T01:10:00;5.12;;;1.40;;
27833;SDS011;15200;50.570;7.244;2023-09-19T01:12:35;5.03;;;1.70;;
27833;SDS011;15200;50.570;7.244;2023-09-19T01:15:06;3.92;;;1.25;;
27833;SDS011;15200;50.570;7.244;2023-09-19T01:17:32;2.95;;;1.10;;
27833;SDS011;15200;50.570;7.244;2023-09-19T01:20:03;6.75;;;1.42;;
27833;SDS011;15200;50.570;7.244;2023-09-19T01:25:33;3.80;;;1.37;;
27833;SDS011;15200;50.570;7.244;2023-09-19T01:28:08;6.30;;;1.70;;
27833;SDS011;15200;50.570;7.244;2023-09-19T01:30:27;3.33;;;1.32;;
27833;SDS011;15200;50.570;7.244;2023-09-19T01:32:56;2.87;;;1.80;;
27833;SDS011;15200;50.570;7.244;2023-09-19T01:35:23;2.95;;;1.57;;
27833;SDS011;15200;50.570;7.244;2023-09-19T01:37:51;6.20;;;2.00;;
27833;SDS011;15200;50.570;7.244;2023-09-19T01:40:20;4.10;;;1.55;;
27833;SDS011;15200;50.570;7.244;2023-09-19T01:43:04;9.18;;;1.75;;
27833;SDS011;15200;50.570;7.244;2023-09-19T01:50:52;3.92;;;1.22;;
27833;SDS011;15200;50.570;7.244;2023-09-19T01:53:21;9.08;;;1.40;;
27833;SDS011;15200;50.570;7.244;2023-09-19T01:55:47;5.28;;;1.22;;
27833;SDS011;15200;50.570;7.244;2023-09-19T01:58:21;5.65;;;1.50;;
27833;SDS011;15200;50.570;7.244;2023-09-19T02:00:45;3.20;;;1.10;;
27833;SDS011;15200;50.570;7.244;2023-09-19T02:03:14;5.20;;;1.27;;
27833;SDS011;15200;50.570;7.244;2023-09-19T02:05:47;4.28;;;1.37;;
27833;SDS011;15200;50.570;7.244;2023-09-19T02:08:10;3.02;;;1.30;;
27833;SDS011;15200;50.570;7.244;2023-09-19T02:10:38;3.08;;;0.90;;
27833;SDS011;15200;50.570;7.244;2023-09-19T02:13:07;5.35;;;1.22;;
27833;SDS011;15200;50.570;7.244;2023-09-19T02:15:34;9.50;;;1.60;;
27833;SDS011;15200;50.570;7.244;2023-09-19T02:18:02;5.95;;;1.40;;
27833;SDS011;15200;50.570;7.244;2023-09-19T02:20:29;6.33;;;1.20;;
27833;SDS011;15200;50.570;7.244;2023-09-19T02:22:58;5.85;;;1.32;;
27833;SDS011;15200;50.570;7.244;2023-09-19T02:25:25;5.92;;;1.30;;
27833;SDS011;15200;50.570;7.244;2023-09-19T02:27:54;3.17;;;1.00;;
27833;SDS011;15200;50.570;7.244;2023-09-19T02:30:23;3.92;;;1.65;;
27833;SDS011;15200;50.570;7.244;2023-09-19T02:32:51;3.40;;;1.22;;
27833;SDS011;15200;50.570;7.244;2023-09-19T02:35:18;6.45;;;1.50;;
27833;SDS011;15200;50.570;7.244;2023-09-19T02:37:46;5.87;;;1.50;;
27833;SDS011;15200;50.570;7.244;2023-09-19T02:40:14;4.00;;;1.32;;
27833;SDS011;15200;50.570;7.244;2023-09-19T02:42:55;7.60;;;1.77;;
27833;SDS011;15200;50.570;7.244;2023-09-19T02:45:24;4.58;;;1.37;;
27833;SDS011;15200;50.570;7.244;2023-09-19T02:47:52;6.28;;;1.40;;
27833;SDS011;15200;50.570;7.244;2023-09-19T02:50:19;10.15;;;1.87;;
27833;SDS011;15200;50.570;7.244;2023-09-19T02:52:46;5.20;;;1.50;;
27833;SDS011;15200;50.570;7.244;2023-09-19T02:55:16;5.87;;;1.55;;
27833;SDS011;15200;50.570;7.244;2023-09-19T02:57:46;5.55;;;1.35;;
27833;SDS011;15200;50.570;7.244;2023-09-19T03:00:13;6.42;;;1.52;;
27833;SDS011;15200;50.570;7.244;2023-09-19T03:02:41;5.10;;;1.45;;
27833;SDS011;15200;50.570;7.244;2023-09-19T03:05:09;5.90;;;1.47;;
27833;SDS011;15200;50.570;7.244;2023-09-19T03:07:37;3.55;;;1.25;;
27833;SDS011;15200;50.570;7.244;2023-09-19T03:10:08;4.40;;;1.10;;
27833;SDS011;15200;50.570;7.244;2023-09-19T03:12:35;4.37;;;1.12;;
27833;SDS011;15200;50.570;7.244;2023-09-19T03:15:03;7.30;;;1.37;;
27833;SDS011;15200;50.570;7.244;2023-09-19T03:17:32;4.20;;;1.35;;
27833;SDS011;15200;50.570;7.244;2023-09-19T03:19:59;5.72;;;1.32;;
27833;SDS011;15200;50.570;7.244;2023-09-19T03:22:27;4.08;;;1.27;;
27833;SDS011;15200;50.570;7.244;2023-09-19T03:24:54;4.67;;;1.80;;
27833;SDS011;15200;50.570;7.244;2023-09-19T03:27:21;6.28;;;1.47;;
27833;SDS011;15200;50.570;7.244;2023-09-19T03:29:49;4.90;;;1.45;;
27833;SDS011;15200;50.570;7.244;2023-09-19T03:32:16;4.40;;;1.52;;
27833;SDS011;15200;50.570;7.244;2023-09-19T03:34:43;6.03;;;1.75;;
27833;SDS011;15200;50.570;7.244;2023-09-19T03:37:11;5.35;;;1.67;;
27833;SDS011;15200;50.570;7.244;2023-09-19T03:39:38;4.25;;;1.30;;
27833;SDS011;15200;50.570;7.244;2023-09-19T03:42:06;4.62;;;1.47;;
27833;SDS011;15200;50.570;7.244;2023-09-19T03:44:33;3.77;;;1.42;;
27833;SDS011;15200;50.570;7.244;2023-09-19T03:47:01;5.25;;;1.57;;
27833;SDS011;15200;50.570;7.244;2023-09-19T03:49:30;7.05;;;1.60;;
27833;SDS011;15200;50.570;7.244;2023-09-19T03:51:57;4.58;;;1.17;;
27833;SDS011;15200;50.570;7.244;2023-09-19T03:54:24;5.15;;;1.40;;
27833;SDS011;15200;50.570;7.244;2023-09-19T03:56:52;4.55;;;1.47;;
27833;SDS011;15200;50.570;7.244;2023-09-19T03:59:19;5.35;;;1.70;;
27833;SDS011;15200;50.570;7.244;2023-09-19T04:01:46;3.67;;;1.45;;
27833;SDS011;15200;50.570;7.244;2023-09-19T04:04:14;3.95;;;1.30;;
27833;SDS011;15200;50.570;7.244;2023-09-19T04:06:42;6.00;;;1.50;;
27833;SDS011;15200;50.570;7.244;2023-09-19T04:09:09;3.90;;;1.30;;
27833;SDS011;15200;50.570;7.244;2023-09-19T04:11:37;3.90;;;1.30;;
27833;SDS011;15200;50.570;7.244;2023-09-19T04:14:05;3.52;;;1.67;;
27833;SDS011;15200;50.570;7.244;2023-09-19T04:16:32;7.55;;;1.70;;
27833;SDS011;15200;50.570;7.244;2023-09-19T04:18:59;3.85;;;1.35;;
27833;SDS011;15200;50.570;7.244;2023-09-19T04:21:27;5.75;;;1.40;;
27833;SDS011;15200;50.570;7.244;2023-09-19T04:23:55;3.87;;;1.42;;
27833;SDS011;15200;50.570;7.244;2023-09-19T04:26:22;4.05;;;1.05;;
27833;SDS011;15200;50.570;7.244;2023-09-19T04:28:51;4.42;;;1.70;;
27833;SDS011;15200;50.570;7.244;2023-09-19T04:31:19;6.40;;;1.62;;
27833;SDS011;15200;50.570;7.244;2023-09-19T04:33:48;4.50;;;1.30;;
27833;SDS011;15200;50.570;7.244;2023-09-19T04:36:15;7.65;;;1.45;;
27833;SDS011;15200;50.570;7.244;2023-09-19T04:38:42;5.83;;;1.75;;
27833;SDS011;15200;50.570;7.244;2023-09-19T04:41:10;5.10;;;1.75;;
27833;SDS011;15200;50.570;7.244;2023-09-19T04:43:37;4.85;;;1.35;;
27833;SDS011;15200;50.570;7.244;2023-09-19T04:46:04;5.30;;;1.55;;
27833;SDS011;15200;50.570;7.244;2023-09-19T04:48:33;4.62;;;1.55;;
27833;SDS011;15200;50.570;7.244;2023-09-19T04:51:01;3.47;;;1.85;;
27833;SDS011;15200;50.570;7.244;2023-09-19T04:53:28;2.42;;;0.95;;
27833;SDS011;15200;50.570;7.244;2023-09-19T04:55:56;3.75;;;1.40;;
27833;SDS011;15200;50.570;7.244;2023-09-19T04:58:24;5.17;;;1.45;;
27833;SDS011;15200;50.570;7.244;2023-09-19T05:00:51;5.97;;;1.40;;
27833;SDS011;15200;50.570;7.244;2023-09-19T05:03:20;7.37;;;1.60;;
27833;SDS011;15200;50.570;7.244;2023-09-19T05:05:48;4.40;;;1.22;;
27833;SDS011;15200;50.570;7.244;2023-09-19T05:08:16;4.58;;;1.32;;
27833;SDS011;15200;50.570;7.244;2023-09-19T05:10:43;8.05;;;1.32;;
27833;SDS011;15200;50.570;7.244;2023-09-19T05:13:11;7.83;;;1.65;;
27833;SDS011;15200;50.570;7.244;2023-09-19T05:15:38;4.15;;;1.57;;
27833;SDS011;15200;50.570;7.244;2023-09-19T05:18:06;3.40;;;1.30;;
27833;SDS011;15200;50.570;7.244;2023-09-19T05:20:34;6.15;;;1.60;;
27833;SDS011;15200;50.570;7.244;2023-09-19T05:23:03;5.15;;;1.50;;
27833;SDS011;15200;50.570;7.244;2023-09-19T05:25:32;7.05;;;1.57;;
27833;SDS011;15200;50.570;7.244;2023-09-19T05:28:01;4.08;;;1.55;;
27833;SDS011;15200;50.570;7.244;2023-09-19T05:30:30;4.58;;;1.92;;
27833;SDS011;15200;50.570;7.244;2023-09-19T05:32:57;5.25;;;1.57;;
27833;SDS011;15200;50.570;7.244;2023-09-19T05:35:25;3.35;;;1.37;;
27833;SDS011;15200;50.570;7.244;2023-09-19T05:37:53;11.78;;;2.45;;
27833;SDS011;15200;50.570;7.244;2023-09-19T05:40:21;4.58;;;2.05;;
27833;SDS011;15200;50.570;7.244;2023-09-19T05:42:49;5.75;;;1.80;;
27833;SDS011;15200;50.570;7.244;2023-09-19T05:45:17;3.62;;;1.57;;
27833;SDS011;15200;50.570;7.244;2023-09-19T05:47:46;4.58;;;1.90;;
27833;SDS011;15200;50.570;7.244;2023-09-19T05:50:13;4.72;;;1.67;;
27833;SDS011;15200;50.570;7.244;2023-09-19T05:52:42;5.25;;;1.80;;
27833;SDS011;15200;50.570;7.244;2023-09-19T05:55:10;4.97;;;1.80;;
27833;SDS011;15200;50.570;7.244;2023-09-19T05:57:38;5.17;;;1.95;;
27833;SDS011;15200;50.570;7.244;2023-09-19T06:00:06;6.83;;;1.75;;
27833;SDS011;15200;50.570;7.244;2023-09-19T06:02:35;5.60;;;1.87;;
27833;SDS011;15200;50.570;7.244;2023-09-19T06:05:04;6.85;;;2.00;;
27833;SDS011;15200;50.570;7.244;2023-09-19T06:07:33;3.27;;;1.50;;
27833;SDS011;15200;50.570;7.244;2023-09-19T06:10:03;4.78;;;1.80;;
27833;SDS011;15200;50.570;7.244;2023-09-19T06:12:32;6.70;;;1.90;;
27833;SDS011;15200;50.570;7.244;2023-09-19T06:15:04;7.25;;;2.20;;
27833;SDS011;15200;50.570;7.244;2023-09-19T06:17:38;8.38;;;2.17;;
27833;SDS011;15200;50.570;7.244;2023-09-19T06:20:06;8.78;;;2.00;;
27833;SDS011;15200;50.570;7.244;2023-09-19T06:22:38;6.58;;;1.70;;
27833;SDS011;15200;50.570;7.244;2023-09-19T06:25:13;7.30;;;2.22;;
27833;SDS011;15200;50.570;7.244;2023-09-19T06:27:38;8.15;;;2.50;;
27833;SDS011;15200;50.570;7.244;2023-09-19T06:30:07;9.20;;;1.98;;
27833;SDS011;15200;50.570;7.244;2023-09-19T06:32:35;7.60;;;2.10;;
27833;SDS011;15200;50.570;7.244;2023-09-19T06:35:02;5.08;;;1.70;;
27833;SDS011;15200;50.570;7.244;2023-09-19T06:37:31;6.97;;;2.20;;
27833;SDS011;15200;50.570;7.244;2023-09-19T06:40:00;6.70;;;1.98;;
27833;SDS011;15200;50.570;7.244;2023-09-19T06:42:29;7.87;;;2.17;;
27833;SDS011;15200;50.570;7.244;2023-09-19T06:44:56;8.38;;;1.75;;
27833;SDS011;15200;50.570;7.244;2023-09-19T06:47:23;9.50;;;2.35;;
27833;SDS011;15200;50.570;7.244;2023-09-19T06:49:52;5.30;;;2.20;;
27833;SDS011;15200;50.570;7.244;2023-09-19T06:52:21;7.60;;;2.30;;
27833;SDS011;15200;50.570;7.244;2023-09-19T06:54:48;6.15;;;1.70;;
27833;SDS011;15200;50.570;7.244;2023-09-19T06:57:16;8.05;;;2.60;;
27833;SDS011;15200;50.570;7.244;2023-09-19T06:59:44;9.48;;;2.17;;
27833;SDS011;15200;50.570;7.244;2023-09-19T07:02:11;5.35;;;1.80;;
27833;SDS011;15200;50.570;7.244;2023-09-19T07:04:39;7.67;;;2.40;;
27833;SDS011;15200;50.570;7.244;2023-09-19T07:07:07;5.78;;;2.37;;
27833;SDS011;15200;50.570;7.244;2023-09-19T07:09:35;11.63;;;2.12;;
27833;SDS011;15200;50.570;7.244;2023-09-19T07:12:03;9.73;;;1.87;;
27833;SDS011;15200;50.570;7.244;2023-09-19T07:14:30;10.40;;;2.10;;
27833;SDS011;15200;50.570;7.244;2023-09-19T07:16:58;9.93;;;2.50;;
27833;SDS011;15200;50.570;7.244;2023-09-19T07:19:26;10.50;;;1.92;;
27833;SDS011;15200;50.570;7.244;2023-09-19T07:21:57;8.18;;;1.82;;
27833;SDS011;15200;50.570;7.244;2023-09-19T07:24:26;11.18;;;1.85;;
27833;SDS011;15200;50.570;7.244;2023-09-19T07:26:54;10.20;;;1.80;;
27833;SDS011;15200;50.570;7.244;2023-09-19T07:29:22;8.33;;;2.33;;
27833;SDS011;15200;50.570;7.244;2023-09-19T07:31:49;7.78;;;2.33;;
27833;SDS011;15200;50.570;7.244;2023-09-19T07:34:17;6.87;;;2.02;;
27833;SDS011;15200;50.570;7.244;2023-09-19T07:36:44;14.30;;;2.42;;
27833;SDS011;15200;50.570;7.244;2023-09-19T07:39:13;8.65;;;2.45;;
27833;SDS011;15200;50.570;7.244;2023-09-19T07:41:40;7.75;;;2.12;;
27833;SDS011;15200;50.570;7.244;2023-09-19T07:44:08;14.65;;;2.30;;
27833;SDS011;15200;50.570;7.244;2023-09-19T07:46:37;5.90;;;2.10;;
27833;SDS011;15200;50.570;7.244;2023-09-19T07:49:04;5.83;;;1.70;;
27833;SDS011;15200;50.570;7.244;2023-09-19T07:51:32;7.97;;;2.35;;
27833;SDS011;15200;50.570;7.244;2023-09-19T07:53:59;9.03;;;1.80;;
27833;SDS011;15200;50.570;7.244;2023-09-19T07:56:26;12.60;;;2.00;;
27833;SDS011;15200;50.570;7.244;2023-09-19T07:58:54;3.95;;;1.27;;
27833;SDS011;15200;50.570;7.244;2023-09-19T08:01:21;6.33;;;1.75;;
27833;SDS011;15200;50.570;7.244;2023-09-19T08:03:50;7.33;;;2.22;;
27833;SDS011;15200;50.570;7.244;2023-09-19T08:06:17;5.87;;;1.70;;
27833;SDS011;15200;50.570;7.244;2023-09-19T08:08:46;8.80;;;1.80;;
27833;SDS011;15200;50.570;7.244;2023-09-19T08:11:15;6.10;;;1.72;;
27833;SDS011;15200;50.570;7.244;2023-09-19T08:13:44;7.50;;;2.05;;
27833;SDS011;15200;50.570;7.244;2023-09-19T08:16:13;5.20;;;1.80;;
27833;SDS011;15200;50.570;7.244;2023-09-19T08:18:41;8.98;;;1.70;;
27833;SDS011;15200;50.570;7.244;2023-09-19T08:21:11;6.12;;;1.85;;
27833;SDS011;15200;50.570;7.244;2023-09-19T08:23:38;6.08;;;2.00;;
27833;SDS011;15200;50.570;7.244;2023-09-19T08:26:06;8.88;;;2.10;;
27833;SDS011;15200;50.570;7.244;2023-09-19T08:28:34;5.22;;;1.60;;
27833;SDS011;15200;50.570;7.244;2023-09-19T08:31:02;11.53;;;2.30;;
27833;SDS011;15200;50.570;7.244;2023-09-19T08:33:33;11.48;;;2.58;;
27833;SDS011;15200;50.570;7.244;2023-09-19T08:36:01;7.92;;;1.95;;
27833;SDS011;15200;50.570;7.244;2023-09-19T08:38:33;5.15;;;1.77;;
27833;SDS011;15200;50.570;7.244;2023-09-19T08:41:00;5.35;;;1.57;;
27833;SDS011;15200;50.570;7.244;2023-09-19T08:43:29;10.13;;;1.80;;
27833;SDS011;15200;50.570;7.244;2023-09-19T08:46:03;7.30;;;2.02;;
27833;SDS011;15200;50.570;7.244;2023-09-19T08:48:27;6.65;;;1.77;;
27833;SDS011;15200;50.570;7.244;2023-09-19T08:51:07;6.12;;;1.90;;
27833;SDS011;15200;50.570;7.244;2023-09-19T08:56:09;4.55;;;1.80;;
27833;SDS011;15200;50.570;7.244;2023-09-19T08:58:45;8.70;;;2.17;;
27833;SDS011;15200;50.570;7.244;2023-09-19T09:01:09;8.20;;;2.02;;
27833;SDS011;15200;50.570;7.244;2023-09-19T09:03:38;8.70;;;1.92;;
27833;SDS011;15200;50.570;7.244;2023-09-19T09:06:07;10.45;;;2.52;;
27833;SDS011;15200;50.570;7.244;2023-09-19T09:08:37;6.78;;;1.82;;
27833;SDS011;15200;50.570;7.244;2023-09-19T09:11:04;8.20;;;2.05;;
27833;SDS011;15200;50.570;7.244;2023-09-19T09:13:34;7.00;;;1.98;;
27833;SDS011;15200;50.570;7.244;2023-09-19T09:16:03;6.67;;;2.05;;
27833;SDS011;15200;50.570;7.244;2023-09-19T09:18:30;8.90;;;1.80;;
27833;SDS011;15200;50.570;7.244;2023-09-19T09:20:57;6.65;;;1.85;;
27833;SDS011;15200;50.570;7.244;2023-09-19T09:23:26;7.78;;;2.05;;
27833;SDS011;15200;50.570;7.244;2023-09-19T09:25:55;4.22;;;1.60;;
27833;SDS011;15200;50.570;7.244;2023-09-19T09:28:23;6.85;;;2.00;;
27833;SDS011;15200;50.570;7.244;2023-09-19T09:30:51;11.22;;;2.00;;
27833;SDS011;15200;50.570;7.244;2023-09-19T09:33:19;8.50;;;2.00;;
27833;SDS011;15200;50.570;7.244;2023-09-19T09:35:48;8.13;;;1.85;;
27833;SDS011;15200;50.570;7.244;2023-09-19T09:38:17;7.83;;;2.08;;
27833;SDS011;15200;50.570;7.244;2023-09-19T09:40:51;3.72;;;1.52;;
27833;SDS011;15200;50.570;7.244;2023-09-19T09:43:28;5.45;;;1.72;;
27833;SDS011;15200;50.570;7.244;2023-09-19T09:46:08;7.12;;;1.67;;
27833;SDS011;15200;50.570;7.244;2023-09-19T09:48:37;4.08;;;1.55;;
27833;SDS011;15200;50.570;7.244;2023-09-19T09:51:05;9.25;;;1.67;;
27833;SDS011;15200;50.570;7.244;2023-09-19T09:53:34;4.55;;;1.80;;
27833;SDS011;15200;50.570;7.244;2023-09-19T09:56:06;5.30;;;1.67;;
27833;SDS011;15200;50.570;7.244;2023-09-19T09:58:34;8.45;;;1.92;;
27833;SDS011;15200;50.570;7.244;2023-09-19T10:01:03;7.00;;;1.57;;
27833;SDS011;15200;50.570;7.244;2023-09-19T10:03:39;4.95;;;1.60;;
27833;SDS011;15200;50.570;7.244;2023-09-19T10:06:07;6.40;;;1.57;;
27833;SDS011;15200;50.570;7.244;2023-09-19T10:08:37;6.92;;;1.77;;
27833;SDS011;15200;50.570;7.244;2023-09-19T10:11:17;5.75;;;1.27;;
27833;SDS011;15200;50.570;7.244;2023-09-19T10:13:46;3.58;;;1.60;;
27833;SDS011;15200;50.570;7.244;2023-09-19T10:16:13;6.70;;;1.72;;
27833;SDS011;15200;50.570;7.244;2023-09-19T10:18:43;5.03;;;1.52;;
27833;SDS011;15200;50.570;7.244;2023-09-19T10:21:12;6.37;;;1.77;;
27833;SDS011;15200;50.570;7.244;2023-09-19T10:23:40;11.33;;;1.75;;
27833;SDS011;15200;50.570;7.244;2023-09-19T10:26:09;6.08;;;1.70;;
27833;SDS011;15200;50.570;7.244;2023-09-19T10:28:36;4.65;;;1.42;;
27833;SDS011;15200;50.570;7.244;2023-09-19T10:31:05;2.70;;;1.00;;
27833;SDS011;15200;50.570;7.244;2023-09-19T10:33:35;4.37;;;1.60;;
27833;SDS011;15200;50.570;7.244;2023-09-19T10:36:04;4.60;;;1.52;;
27833;SDS011;15200;50.570;7.244;2023-09-19T10:38:32;6.65;;;1.80;;
27833;SDS011;15200;50.570;7.244;2023-09-19T10:41:00;5.72;;;1.77;;
27833;SDS011;15200;50.570;7.244;2023-09-19T10:43:29;3.58;;;1.62;;
27833;SDS011;15200;50.570;7.244;2023-09-19T10:46:03;3.52;;;1.40;;
27833;SDS011;15200;50.570;7.244;2023-09-19T10:51:21;6.12;;;1.60;;
27833;SDS011;15200;50.570;7.244;2023-09-19T10:53:54;6.30;;;1.37;;
27833;SDS011;15200;50.570;7.244;2023-09-19T10:59:10;6.12;;;1.35;;
27833;SDS011;15200;50.570;7.244;2023-09-19T11:01:43;3.02;;;1.40;;
27833;SDS011;15200;50.570;7.244;2023-09-19T11:04:28;6.65;;;1.65;;
27833;SDS011;15200;50.570;7.244;2023-09-19T11:07:03;5.75;;;1.90;;
27833;SDS011;15200;50.570;7.244;2023-09-19T11:09:45;5.28;;;1.77;;
27833;SDS011;15200;50.570;7.244;2023-09-19T11:12:47;3.98;;;1.37;;
27833;SDS011;15200;50.570;7.244;2023-09-19T11:14:41;4.55;;;1.55;;
27833;SDS011;15200;50.570;7.244;2023-09-19T11:17:29;9.63;;;1.92;;
27833;SDS011;15200;50.570;7.244;2023-09-19T11:22:28;10.32;;;2.30;;
27833;SDS011;15200;50.570;7.244;2023-09-19T11:24:55;10.38;;;2.10;;
27833;SDS011;15200;50.570;7.244;2023-09-19T11:27:24;5.08;;;1.57;;
27833;SDS011;15200;50.570;7.244;2023-09-19T11:30:00;6.30;;;2.08;;
27833;SDS011;15200;50.570;7.244;2023-09-19T11:32:49;6.17;;;1.72;;
27833;SDS011;15200;50.570;7.244;2023-09-19T11:34:52;6.92;;;1.90;;
27833;SDS011;15200;50.570;7.244;2023-09-19T11:40:05;5.47;;;1.40;;
27833;SDS011;15200;50.570;7.244;2023-09-19T11:42:44;2.77;;;1.27;;
27833;SDS011;15200;50.570;7.244;2023-09-19T11:47:57;4.80;;;1.95;;
27833;SDS011;15200;50.570;7.244;2023-09-19T11:50:24;5.35;;;1.30;;
27833;SDS011;15200;50.570;7.244;2023-09-19T11:52:52;4.35;;;1.75;;
27833;SDS011;15200;50.570;7.244;2023-09-19T11:55:21;3.90;;;1.42;;
27833;SDS011;15200;50.570;7.244;2023-09-19T11:57:49;5.00;;;1.60;;
27833;SDS011;15200;50.570;7.244;2023-09-19T12:00:17;8.13;;;1.98;;
27833;SDS011;15200;50.570;7.244;2023-09-19T12:02:46;3.62;;;1.30;;
27833;SDS011;15200;50.570;7.244;2023-09-19T12:05:14;5.83;;;1.60;;
27833;SDS011;15200;50.570;7.244;2023-09-19T12:07:46;3.58;;;1.47;;
27833;SDS011;15200;50.570;7.244;2023-09-19T12:10:12;4.47;;;1.37;;
27833;SDS011;15200;50.570;7.244;2023-09-19T12:12:40;4.92;;;1.72;;
27833;SDS011;15200;50.570;7.244;2023-09-19T12:15:09;3.75;;;1.37;;
27833;SDS011;15200;50.570;7.244;2023-09-19T12:17:37;4.62;;;1.87;;
27833;SDS011;15200;50.570;7.244;2023-09-19T12:20:05;3.80;;;1.55;;
27833;SDS011;15200;50.570;7.244;2023-09-19T12:22:43;2.58;;;1.35;;
27833;SDS011;15200;50.570;7.244;2023-09-19T12:25:12;5.60;;;1.42;;
27833;SDS011;15200;50.570;7.244;2023-09-19T12:27:50;4.33;;;1.60;;
27833;SDS011;15200;50.570;7.244;2023-09-19T12:30:14;3.67;;;1.60;;
27833;SDS011;15200;50.570;7.244;2023-09-19T12:32:43;3.75;;;1.37;;
27833;SDS011;15200;50.570;7.244;2023-09-19T12:35:26;5.15;;;1.60;;
27833;SDS011;15200;50.570;7.244;2023-09-19T12:37:44;3.62;;;1.00;;
27833;SDS011;15200;50.570;7.244;2023-09-19T12:40:14;4.37;;;1.20;;
27833;SDS011;15200;50.570;7.244;2023-09-19T12:42:44;4.10;;;1.40;;
27833;SDS011;15200;50.570;7.244;2023-09-19T12:45:11;4.20;;;1.20;;
27833;SDS011;15200;50.570;7.244;2023-09-19T12:47:40;3.85;;;1.27;;
27833;SDS011;15200;50.570;7.244;2023-09-19T12:50:13;3.22;;;1.20;;
27833;SDS011;15200;50.570;7.244;2023-09-19T12:52:48;2.83;;;1.12;;
27833;SDS011;15200;50.570;7.244;2023-09-19T12:55:25;4.55;;;1.10;;
27833;SDS011;15200;50.570;7.244;2023-09-19T12:57:57;4.35;;;1.12;;
27833;SDS011;15200;50.570;7.244;2023-09-19T13:00:35;2.72;;;1.15;;
27833;SDS011;15200;50.570;7.244;2023-09-19T13:05:59;2.90;;;1.32;;
27833;SDS011;15200;50.570;7.244;2023-09-19T13:08:28;4.30;;;1.30;;
27833;SDS011;15200;50.570;7.244;2023-09-19T13:11:17;5.80;;;1.20;;
27833;SDS011;15200;50.570;7.244;2023-09-19T13:13:33;3.05;;;1.17;;
27833;SDS011;15200;50.570;7.244;2023-09-19T13:16:02;3.17;;;1.42;;
27833;SDS011;15200;50.570;7.244;2023-09-19T13:18:32;3.02;;;1.12;;
27833;SDS011;15200;50.570;7.244;2023-09-19T13:21:06;4.53;;;1.10;;
27833;SDS011;15200;50.570;7.244;2023-09-19T13:23:35;4.17;;;1.30;;
27833;SDS011;15200;50.570;7.244;2023-09-19T13:26:03;4.53;;;1.20;;
27833;SDS011;15200;50.570;7.244;2023-09-19T13:28:34;5.78;;;1.35;;
27833;SDS011;15200;50.570;7.244;2023-09-19T13:31:02;3.17;;;1.30;;
27833;SDS011;15200;50.570;7.244;2023-09-19T13:33:29;5.75;;;1.30;;
27833;SDS011;15200;50.570;7.244;2023-09-19T13:35:57;5.30;;;1.15;;
27833;SDS011;15200;50.570;7.244;2023-09-19T13:38:24;6.97;;;1.60;;
27833;SDS011;15200;50.570;7.244;2023-09-19T13:40:51;1.62;;;0.70;;
27833;SDS011;15200;50.570;7.244;2023-09-19T13:43:19;4.12;;;1.00;;
27833;SDS011;15200;50.570;7.244;2023-09-19T13:45:48;3.90;;;1.00;;
27833;SDS011;15200;50.570;7.244;2023-09-19T13:48:16;2.70;;;1.00;;
27833;SDS011;15200;50.570;7.244;2023-09-19T13:50:45;4.58;;;1.42;;
27833;SDS011;15200;50.570;7.244;2023-09-19T13:53:12;3.95;;;0.98;;
27833;SDS011;15200;50.570;7.244;2023-09-19T13:55:40;3.87;;;1.00;;
27833;SDS011;15200;50.570;7.244;2023-09-19T13:58:07;2.85;;;1.10;;
27833;SDS011;15200;50.570;7.244;2023-09-19T14:00:36;3.12;;;1.20;;
27833;SDS011;15200;50.570;7.244;2023-09-19T14:03:04;5.20;;;0.93;;
27833;SDS011;15200;50.570;7.244;2023-09-19T14:05:32;3.20;;;1.05;;
27833;SDS011;15200;50.570;7.244;2023-09-19T14:07:59;3.77;;;1.32;;
27833;SDS011;15200;50.570;7.244;2023-09-19T14:10:29;3.65;;;0.90;;
27833;SDS011;15200;50.570;7.244;2023-09-19T14:12:57;6.30;;;1.20;;
27833;SDS011;15200;50.570;7.244;2023-09-19T14:15:25;6.17;;;1.17;;
27833;SDS011;15200;50.570;7.244;2023-09-19T14:17:57;2.92;;;0.72;;
27833;SDS011;15200;50.570;7.244;2023-09-19T14:20:25;4.80;;;0.90;;
27833;SDS011;15200;50.570;7.244;2023-09-19T14:22:53;1.85;;;0.90;;
27833;SDS011;15200;50.570;7.244;2023-09-19T14:25:21;3.92;;;1.40;;
27833;SDS011;15200;50.570;7.244;2023-09-19T14:27:48;3.00;;;1.00;;
27833;SDS011;15200;50.570;7.244;2023-09-19T14:30:16;2.05;;;0.80;;
27833;SDS011;15200;50.570;7.244;2023-09-19T14:32:43;4.55;;;1.07;;
27833;SDS011;15200;50.570;7.244;2023-09-19T14:35:10;2.30;;;1.00;;
27833;SDS011;15200;50.570;7.244;2023-09-19T14:37:39;2.72;;;0.80;;
27833;SDS011;15200;50.570;7.244;2023-09-19T14:40:07;3.10;;;0.95;;
27833;SDS011;15200;50.570;7.244;2023-09-19T14:42:35;3.20;;;1.05;;
27833;SDS011;15200;50.570;7.244;2023-09-19T14:45:05;4.40;;;1.00;;
27833;SDS011;15200;50.570;7.244;2023-09-19T14:47:33;1.70;;;0.70;;
27833;SDS011;15200;50.570;7.244;2023-09-19T14:50:03;3.25;;;1.10;;
27833;SDS011;15200;50.570;7.244;2023-09-19T14:52:32;2.25;;;0.90;;
27833;SDS011;15200;50.570;7.244;2023-09-19T14:55:01;2.33;;;0.80;;
27833;SDS011;15200;50.570;7.244;2023-09-19T14:57:31;2.87;;;0.98;;
27833;SDS011;15200;50.570;7.244;2023-09-19T14:59:58;2.70;;;0.75;;
27833;SDS011;15200;50.570;7.244;2023-09-19T15:02:26;2.60;;;1.00;;
27833;SDS011;15200;50.570;7.244;2023-09-19T15:04:54;1.80;;;0.80;;
27833;SDS011;15200;50.570;7.244;2023-09-19T15:07:21;2.22;;;0.80;;
27833;SDS011;15200;50.570;7.244;2023-09-19T15:09:48;3.72;;;1.17;;
27833;SDS011;15200;50.570;7.244;2023-09-19T15:12:16;3.40;;;0.75;;
27833;SDS011;15200;50.570;7.244;2023-09-19T15:14:43;3.83;;;0.80;;
27833;SDS011;15200;50.570;7.244;2023-09-19T15:17:10;5.12;;;1.02;;
27833;SDS011;15200;50.570;7.244;2023-09-19T15:19:38;2.85;;;1.10;;
27833;SDS011;15200;50.570;7.244;2023-09-19T15:22:05;3.52;;;1.00;;
27833;SDS011;15200;50.570;7.244;2023-09-19T15:24:32;2.90;;;1.07;;